Flight Track Log - Related Links

Times and Time Zones

All times are in EDT time to prevent confusion due to time zone crossing. See the UAL231 flight status page for this flight to view local times or setup timezone preferences in your user account.

Time Position Orientation Groundspeed Altitude Reporting Facility
EDT Latitude Longitude Course Direction KTS MPH feet Rate Location/Type
Sun 04:42:32 PM 38.9121 -77.5257 261° West  Level FlightAware
Sun 04:43:32 PM 38.8719 -77.6562 55° Northeast  Level FlightAware
Sun 04:44:00 PM 38.9028 -77.6003 261° West 344 396 3,600  Level Washington Center
Sun 04:49:01 PM 38.8386 -78.1289 277° West 374 430 16,900 2,591 Climbing Washington Center
Sun 04:49:59 PM 38.8525 -78.2653 269° West 379 436 19,100 2,269 Climbing Washington Center
Sun 04:51:00 PM 38.8511 -78.4092 269° West 392 451 21,400 1,475 Climbing Washington Center
Sun 04:52:01 PM 38.8497 -78.5611 268° West 407 468 22,100 1,289 Climbing Washington Center
Sun 04:53:01 PM 38.8453 -78.7314 269° West 446 513 24,000 1,850 Climbing Washington Center
Sun 04:54:01 PM 38.8431 -78.8967 269° West 466 536 25,800 1,678 Climbing Washington Center
Sun 04:54:59 PM 38.8406 -79.0617 267° West 472 543 27,300 1,424 Climbing Washington Center
Sun 04:55:59 PM 38.8333 -79.2267 269° West 472 543 28,600 1,250 Climbing Washington Center
Sun 04:56:59 PM 38.8306 -79.3917 268° West 472 543 29,800 1,289 Climbing Washington Center
Sun 04:58:00 PM 38.8253 -79.5489 260° West 455 524 31,200 843 Climbing Washington Center
Sun 04:59:00 PM 38.8058 -79.6942 256° West 455 524 31,500 298 Climbing Washington Center
Sun 05:00:01 PM 38.7756 -79.8469 254° West 460 529 31,800 496 Climbing Washington Center
Sun 05:01:01 PM 38.7406 -80.0075 254° West 466 536 32,500 814 Climbing Washington Center
Sun 05:01:59 PM 38.7033 -80.1719 255° West 468 539 33,400 763 Climbing Indianapolis Center
Sun 05:02:59 PM 38.6703 -80.3306 255° West 445 512 34,000 300 Climbing Indianapolis Center
Sun 05:03:59 PM 38.6406 -80.4675 254° West 445 512 34,000  Level Indianapolis Center
Sun 05:04:59 PM 38.6050 -80.6231 255° West 445 512 34,000  Level Indianapolis Center
Sun 05:05:59 PM 38.5714 -80.7811 255° West 451 519 34,000  Level Indianapolis Center
Sun 05:06:59 PM 38.5372 -80.9392 253° West 457 526 34,000  Level Indianapolis Center
Sun 05:07:59 PM 38.5011 -81.0917 254° West 462 532 34,000  Level Indianapolis Center
Sun 05:08:59 PM 38.4667 -81.2467 254° West 462 532 34,000  Level Indianapolis Center
Sun 05:09:59 PM 38.4300 -81.4044 254° West 462 532 34,000  Level Indianapolis Center
Sun 05:10:59 PM 38.3953 -81.5617 255° West 462 532 34,000  Level Indianapolis Center
Sun 05:11:59 PM 38.3622 -81.7161 252° West 462 532 34,000  Level Indianapolis Center
Sun 05:12:59 PM 38.3228 -81.8681 251° West 462 532 34,000  Level Indianapolis Center
Sun 05:13:59 PM 38.2811 -82.0200 250° West 462 532 34,000  Level Indianapolis Center
Sun 05:14:59 PM 38.2331 -82.1847 251° West 462 532 34,000  Level Indianapolis Center
Sun 05:15:59 PM 38.1908 -82.3361 251° West 462 532 34,000  Level Indianapolis Center
Sun 05:16:59 PM 38.1486 -82.4875 251° West 462 532 34,000  Level Indianapolis Center
Sun 05:17:59 PM 38.1061 -82.6411 248° West 462 532 34,000  Level Indianapolis Center
Sun 05:18:59 PM 38.0592 -82.7919 251° West 462 532 34,000  Level Indianapolis Center
Sun 05:19:59 PM 38.0164 -82.9481 250° West 467 537 34,000  Level Indianapolis Center
Sun 05:20:59 PM 37.9731 -83.0986 249° West 467 537 34,000  Level Indianapolis Center
Sun 05:21:59 PM 37.9278 -83.2517 249° West 467 537 34,000  Level Indianapolis Center
Sun 05:22:59 PM 37.8822 -83.4017 250° West 467 537 34,000  Level Indianapolis Center
Sun 05:23:59 PM 37.8364 -83.5569 249° West 467 537 34,000  Level Indianapolis Center
Sun 05:26:59 PM 37.7019 -84.0058 249° West 467 537 34,000  Level Indianapolis Center
Sun 05:27:59 PM 37.6556 -84.1578 249° West 467 537 34,000  Level Indianapolis Center
Sun 05:28:59 PM 37.6108 -84.3069 242° Southwest 467 537 34,000  Level Indianapolis Center
Sun 05:32:59 PM 37.3703 -84.8714 244° Southwest 462 532 34,000  Level Indianapolis Center
Sun 05:37:21 PM 37.1283 -85.4994 245° Southwest 473 544 34,000  Level Memphis Center
Sun 05:38:21 PM 37.0756 -85.6406 241° Southwest 464 534 34,000  Level Memphis Center
Sun 05:39:21 PM 37.0142 -85.7792 225° Southwest 459 528 34,000  Level Memphis Center
Sun 05:40:21 PM 36.9225 -85.8933 223° Southwest 457 526 34,000  Level Memphis Center
Sun 05:41:21 PM 36.8403 -85.9889 222° Southwest 457 526 34,000  Level Memphis Center
Sun 05:42:21 PM 36.7481 -86.0922 223° Southwest 455 524 34,000  Level Memphis Center
Sun 05:43:21 PM 36.6558 -86.2006 223° Southwest 461 531 34,000  Level Memphis Center
Sun 05:44:21 PM 36.5636 -86.3086 225° Southwest 455 524 34,000  Level Memphis Center
Sun 05:45:21 PM 36.4675 -86.4294 226° Southwest 460 529 34,000  Level Memphis Center
Sun 05:46:21 PM 36.3772 -86.5447 240° Southwest 460 529 34,000  Level Memphis Center
Sun 05:47:21 PM 36.3144 -86.6792 256° West 453 521 34,000  Level Memphis Center
Sun 05:48:21 PM 36.2836 -86.8350 264° West 453 521 34,000  Level Memphis Center
Sun 05:49:21 PM 36.2711 -86.9847 251° West 477 549 34,000 50 Level Memphis Center
Sun 05:50:21 PM 36.2294 -87.1383 246° West 471 542 34,100  Climbing Memphis Center
Sun 05:51:21 PM 36.1769 -87.2869 247° West 465 535 34,000 -50 Descending Memphis Center
Sun 05:52:21 PM 36.1222 -87.4458 247° West 465 535 34,000  Level Memphis Center
Sun 05:53:21 PM 36.0714 -87.5914 247° West 465 535 34,000  Level Memphis Center
Sun 05:54:21 PM 36.0203 -87.7367 246° West 465 535 34,000  Level Memphis Center
Sun 05:55:21 PM 35.9692 -87.8794 246° West 465 535 34,000  Level Memphis Center
Sun 05:56:21 PM 35.9178 -88.0244 245° Southwest 465 535 34,000  Level Memphis Center
Sun 05:57:21 PM 35.8719 -88.1464 246° West 456 525 34,000  Level Memphis Center
Sun 05:58:21 PM 35.8203 -88.2883 245° Southwest 451 519 34,000  Level Memphis Center
Sun 05:59:21 PM 35.7661 -88.4331 246° West 451 519 34,000  Level Memphis Center
Sun 06:00:21 PM 35.7142 -88.5750 245° Southwest 456 525 34,000  Level Memphis Center
Sun 06:01:21 PM 35.6597 -88.7167 247° West 456 525 34,000  Level Memphis Center
Sun 06:02:21 PM 35.6075 -88.8708 246° West 461 531 34,000  Level Memphis Center
Sun 06:03:21 PM 35.5550 -89.0122 245° Southwest 461 531 34,000  Level Memphis Center
Sun 06:04:21 PM 35.5019 -89.1508 246° West 461 531 34,000  Level Memphis Center
Sun 06:05:21 PM 35.4511 -89.2917 244° Southwest 461 531 34,000  Level Memphis Center
Sun 06:06:21 PM 35.3981 -89.4272 246° West 455 524 34,000  Level Memphis Center
Sun 06:07:21 PM 35.3489 -89.5653 245° Southwest 455 524 34,000  Level Memphis Center
Sun 06:08:21 PM 35.2956 -89.7058 246° West 450 518 34,000  Level Memphis Center
Sun 06:09:21 PM 35.2461 -89.8408 244° Southwest 445 512 34,000  Level Memphis Center
Sun 06:10:21 PM 35.1903 -89.9786 246° West 445 512 34,000  Level Memphis Center
Sun 06:11:21 PM 35.1386 -90.1183 244° Southwest 445 512 34,000  Level Memphis Center
Sun 06:12:21 PM 35.0844 -90.2556 244° Southwest 445 512 34,000  Level Memphis Center
Sun 06:13:21 PM 35.0303 -90.3925 245° Southwest 445 512 34,000  Level Memphis Center
Sun 06:14:21 PM 34.9844 -90.5117 244° Southwest 445 512 34,000  Level Memphis Center
Sun 06:15:21 PM 34.9278 -90.6533 245° Southwest 445 512 34,000  Level Memphis Center
Sun 06:16:21 PM 34.8753 -90.7900 243° Southwest 445 512 34,000  Level Memphis Center
Sun 06:17:21 PM 34.8203 -90.9239 245° Southwest 445 512 34,000  Level Memphis Center
Sun 06:18:21 PM 34.7675 -91.0600 244° Southwest 450 518 34,000  Level Memphis Center
Sun 06:19:21 PM 34.7125 -91.1983 243° Southwest 450 518 34,000  Level Memphis Center
Sun 06:20:21 PM 34.6572 -91.3317 244° Southwest 445 512 34,000  Level Memphis Center
Sun 06:21:21 PM 34.6019 -91.4697 244° Southwest 445 512 34,000  Level Memphis Center
Sun 06:22:21 PM 34.5442 -91.6153 243° Southwest 445 512 34,000  Level Memphis Center
Sun 06:23:21 PM 34.4886 -91.7481 243° Southwest 445 512 34,000  Level Memphis Center
Sun 06:24:21 PM 34.4347 -91.8781 244° Southwest 445 512 34,000  Level Memphis Center
Sun 06:25:21 PM 34.3808 -92.0131 243° Southwest 445 512 34,000  Level Memphis Center
Sun 06:26:21 PM 34.3247 -92.1478 244° Southwest 445 512 34,000  Level Memphis Center
Sun 06:27:21 PM 34.2706 -92.2825 243° Southwest 445 512 34,000  Level Memphis Center
Sun 06:28:21 PM 34.2228 -92.3969 244° Southwest 445 512 34,000  Level Memphis Center
Sun 06:29:21 PM 34.1686 -92.5286 244° Southwest 445 512 34,000  Level Memphis Center
Sun 06:31:33 PM 34.0478 -92.8264 244° Southwest 434 499 34,000  Level Fort Center
Sun 06:32:33 PM 33.9942 -92.9569 243° Southwest 434 499 34,000  Level Fort Center
Sun 06:33:33 PM 33.9403 -93.0850 243° Southwest 439 505 34,000  Level Fort Center
Sun 06:34:33 PM 33.8842 -93.2153 243° Southwest 439 505 34,000 50 Level Fort Center
Sun 06:35:33 PM 33.8300 -93.3456 242° Southwest 439 505 34,100  Climbing Fort Center
Sun 06:37:33 PM 33.7169 -93.6028 244° Southwest 439 505 34,000 -33 Descending Fort Center
Sun 06:38:33 PM 33.6625 -93.7350 243° Southwest 439 505 34,000  Level Fort Center
Sun 06:39:33 PM 33.6078 -93.8644 244° Southwest 439 505 34,000  Level Fort Center
Sun 06:40:33 PM 33.5531 -93.9989 254° West 444 511 34,000  Level Fort Center
Sun 06:41:33 PM 33.5194 -94.1422 269° West 444 511 34,000  Level Fort Center
Sun 06:42:33 PM 33.5167 -94.2867 272° West 444 511 34,000  Level Fort Center
Sun 06:43:33 PM 33.5203 -94.4336 271° West 444 511 34,000  Level Fort Center
Sun 06:44:33 PM 33.5217 -94.5806 270° West 444 511 34,000  Level Fort Center
Sun 06:45:33 PM 33.5222 -94.6975 271° West 438 504 34,000  Level Fort Center
Sun 06:46:33 PM 33.5258 -94.8744 270° West 438 504 34,000  Level Fort Center
Sun 06:47:33 PM 33.5267 -95.0214 271° West 438 504 34,000  Level Fort Center
Sun 06:48:33 PM 33.5294 -95.1683 270° West 438 504 34,000  Level Fort Center
Sun 06:49:33 PM 33.5297 -95.3178 271° West 438 504 34,000  Level Fort Center
Sun 06:50:33 PM 33.5322 -95.4647 272° West 438 504 34,000  Level Fort Center
Sun 06:51:33 PM 33.5364 -95.6092 271° West 438 504 34,000  Level Fort Center
Sun 06:52:33 PM 33.5383 -95.7561 271° West 438 504 34,000  Level Fort Center
Sun 06:53:33 PM 33.5403 -95.9031 270° West 443 510 34,000  Level Fort Center
Sun 06:54:33 PM 33.5400 -96.0528 271° West 443 510 34,000  Level Fort Center
Sun 06:55:33 PM 33.5414 -96.1972 270° West 437 503 34,000  Level Fort Center
Sun 06:56:33 PM 33.5406 -96.3419 271° West 443 510 34,000 -50 Level Fort Center
Sun 06:57:33 PM 33.5417 -96.4889 270° West 443 510 33,900  Descending Fort Center
Sun 06:58:33 PM 33.5406 -96.6358 270° West 443 510 34,000 50 Climbing Fort Center
Sun 06:59:33 PM 33.5414 -96.7681 270° West 443 510 34,000 -300 Level Fort Center
Sun 07:00:33 PM 33.5422 -96.9175 269° West 443 510 33,400 -850 Descending Fort Center
Sun 07:01:33 PM 33.5406 -97.0644 270° West 443 510 32,300 -1,100 Descending Fort Center
Sun 07:02:33 PM 33.5408 -97.2192 270° West 453 521 31,200 -1,000 Descending Fort Center
Sun 07:03:33 PM 33.5408 -97.3611 269° West 453 521 30,300 -600 Descending Fort Center
Sun 07:04:33 PM 33.5389 -97.5081 269° West 448 516 30,000 -150 Descending Fort Center
Sun 07:05:33 PM 33.5367 -97.6553 271° West 443 510 30,000  Level Fort Center
Sun 07:06:33 PM 33.5383 -97.7972 281° West 438 504 30,000  Level Fort Center
Sun 07:07:33 PM 33.5608 -97.9394 290° West 438 504 30,000  Level Fort Center
Sun 07:08:33 PM 33.6019 -98.0769 295° West 438 504 30,000  Level Fort Center
Sun 07:09:33 PM 33.6594 -98.2244 295° West 444 511 30,000  Level Fort Center
Sun 07:10:33 PM 33.7128 -98.3600 319° Northwest 444 511 30,000  Level Fort Center
Sun 07:11:33 PM 33.8058 -98.4558 303° West 431 496 30,000  Level Fort Center
Sun 07:12:33 PM 33.8717 -98.5767 273° West 441 507 30,000  Level Fort Center
Sun 07:13:33 PM 33.8783 -98.7244 270° West 424 488 30,000  Level Fort Center
Sun 07:14:33 PM 33.8789 -98.8669 267° West 430 495 30,000  Level Fort Center
Sun 07:15:33 PM 33.8731 -99.0169 274° West 436 502 30,000  Level Fort Center
Sun 07:16:33 PM 33.8797 -99.1447 269° West 437 503 30,000 50 Level Fort Center
Sun 07:17:33 PM 33.8775 -99.2897 269° West 437 503 30,100  Climbing Fort Center
Sun 07:18:33 PM 33.8753 -99.4372 271° West 437 503 30,000 -50 Descending Fort Center
Sun 07:19:34 PM 33.8769 -99.5825 269° West 437 503 30,000  Level Fort Center
Sun 07:20:33 PM 33.8742 -99.7300 270° West 437 503 30,000  Level Fort Center
Sun 07:21:33 PM 33.8736 -99.8725 270° West 437 503 30,000  Level Fort Center
Sun 07:22:33 PM 33.8728 -100.0128 269° West 437 503 30,000  Level Fort Center
Sun 07:23:33 PM 33.8700 -100.1553 271° West 431 496 30,000  Level Fort Center
Sun 07:24:33 PM 33.8711 -100.2878 269° West 423 487 30,000  Level Fort Center
Sun 07:25:33 PM 33.8697 -100.4328 269° West 423 487 30,000  Level Fort Center
Sun 07:28:33 PM 33.8653 -100.8503 267° West 418 481 30,000 75 Level Fort Center
Sun 07:29:33 PM 33.8589 -100.9978 269° West 423 487 30,300 750 Climbing Fort Center
Sun 07:30:33 PM 33.8564 -101.1625 269° West 447 514 31,500 1,040 Climbing Fort Center
Sun 07:34:33 PM 33.8439 -101.7372 270° West 436 502 35,500 900 Climbing Fort Center
Sun 07:35:33 PM 33.8436 -101.8647 267° West 436 502 36,000 250 Climbing Fort Center
Sun 07:36:33 PM 33.8361 -102.0169 270° West 431 496 36,000  Level Fort Center
Sun 07:37:33 PM 33.8356 -102.1444 266° West 422 486 36,000  Level Fort Center
Sun 07:38:34 PM 33.8275 -102.2964 271° West 422 486 36,000  Level Fort Center
Sun 07:39:33 PM 33.8289 -102.4189 267° West 417 480 36,000  Level Fort Center
Sun 07:40:33 PM 33.8228 -102.5736 267° West 417 480 36,000  Level Fort Center
Sun 07:41:44 PM 33.8172 -102.7233 268° West 420 483 36,000  Level Albuquerque Center
Sun 07:42:46 PM 33.8122 -102.8678 268° West 419 482 36,000  Level Albuquerque Center
Sun 07:43:48 PM 33.8086 -103.0044 268° West 419 482 36,000  Level Albuquerque Center
Sun 07:44:50 PM 33.8039 -103.1419 268° West 415 478 36,000  Level Albuquerque Center
Sun 07:45:52 PM 33.7986 -103.3028 267° West 412 474 36,000  Level Albuquerque Center
Sun 07:46:54 PM 33.7925 -103.4436 268° West 414 476 36,000  Level Albuquerque Center
Sun 07:47:56 PM 33.7878 -103.5828 267° West 415 478 36,000  Level Albuquerque Center
Sun 07:48:59 PM 33.7803 -103.7336 268° West 418 481 36,000  Level Albuquerque Center
Sun 07:50:01 PM 33.7753 -103.8825 267° West 417 480 36,000  Level Albuquerque Center
Sun 07:51:03 PM 33.7697 -104.0206 267° West 417 480 36,000  Level Albuquerque Center
Sun 07:52:05 PM 33.7628 -104.1692 267° West 416 479 36,000  Level Albuquerque Center
Sun 07:53:07 PM 33.7572 -104.3072 267° West 415 478 36,000  Level Albuquerque Center
Sun 07:54:09 PM 33.7503 -104.4528 267° West 410 472 36,000 -48 Level Albuquerque Center
Sun 07:55:11 PM 33.7439 -104.5856 267° West 405 466 35,900  Descending Albuquerque Center
Sun 07:56:13 PM 33.7367 -104.7278 267° West 400 460 36,000 48 Climbing Albuquerque Center
Sun 07:57:16 PM 33.7306 -104.8619 267° West 403 464 36,000  Level Albuquerque Center
Sun 07:58:18 PM 33.7231 -105.0100 267° West 410 472 36,000  Level Albuquerque Center
Sun 07:59:20 PM 33.7169 -105.1481 266° West 415 478 36,000  Level Albuquerque Center
Sun 08:00:22 PM 33.7083 -105.2975 266° West 417 480 36,000  Level Albuquerque Center
Sun 08:01:24 PM 33.7008 -105.4369 266° West 419 482 36,000  Level Albuquerque Center
Sun 08:02:26 PM 33.6931 -105.5850 267° West 421 484 36,000  Level Albuquerque Center
Sun 08:03:28 PM 33.6869 -105.7239 267° West 420 483 36,000 -48 Level Albuquerque Center
Sun 08:04:30 PM 33.6803 -105.8617 265° West 417 480 35,900 -48 Descending Albuquerque Center
Sun 08:05:33 PM 33.6697 -105.9953 266° West 412 474 35,900  Level Albuquerque Center
Sun 08:06:35 PM 33.6622 -106.1275 266° West 405 466 35,900 48 Level Albuquerque Center
Sun 08:07:37 PM 33.6519 -106.2872 266° West 402 463 36,000  Climbing Albuquerque Center
Sun 08:08:39 PM 33.6447 -106.4189 266° West 400 460 35,900 -48 Descending Albuquerque Center
Sun 08:09:41 PM 33.6364 -106.5514 266° West 400 460 35,900 48 Level Albuquerque Center
Sun 08:10:43 PM 33.6294 -106.6569 266° West 399 459 36,000 48 Climbing Albuquerque Center
Sun 08:11:46 PM 33.6194 -106.8158 265° West 400 460 36,000 -48 Level Albuquerque Center
Sun 08:12:48 PM 33.6106 -106.9475 266° West 399 459 35,900  Descending Albuquerque Center
Sun 08:13:50 PM 33.6008 -107.1056 265° West 399 459 36,000 48 Climbing Albuquerque Center
Sun 08:14:53 PM 33.5919 -107.2369 265° West 398 458 36,000 -48 Level Albuquerque Center
Sun 08:15:55 PM 33.5828 -107.3686 265° West 398 458 35,900  Descending Albuquerque Center
Sun 08:16:57 PM 33.5736 -107.4981 265° West 396 456 36,000  Climbing Albuquerque Center
Sun 08:17:59 PM 33.5622 -107.6553 265° West 396 456 35,900  Descending Albuquerque Center
Sun 08:19:02 PM 33.5531 -107.7878 265° West 399 459 36,000  Climbing Albuquerque Center
Sun 08:20:04 PM 33.5433 -107.9192 265° West 399 459 35,900  Descending Albuquerque Center
Sun 08:21:06 PM 33.5333 -108.0508 265° West 399 459 36,000 48 Climbing Albuquerque Center
Sun 08:22:08 PM 33.5225 -108.1900 265° West 399 459 36,000  Level Albuquerque Center
Sun 08:23:11 PM 33.5136 -108.3203 265° West 398 458 36,000  Level Albuquerque Center
Sun 08:24:13 PM 33.5014 -108.4769 265° West 399 459 36,000  Level Albuquerque Center
Sun 08:25:15 PM 33.4911 -108.6069 265° West 398 458 36,000  Level Albuquerque Center
Sun 08:26:17 PM 33.4808 -108.7383 265° West 400 460 36,000  Level Albuquerque Center
Sun 08:27:20 PM 33.4706 -108.8686 265° West 401 461 36,000  Level Albuquerque Center
Sun 08:28:22 PM 33.4586 -109.0272 264° West 403 464 36,000  Level Albuquerque Center
Sun 08:29:24 PM 33.4472 -109.1575 265° West 402 463 36,000  Level Albuquerque Center
Sun 08:30:26 PM 33.4367 -109.2883 264° West 402 463 36,000  Level Albuquerque Center
Sun 08:31:29 PM 33.4256 -109.4189 264° West 401 461 36,000  Level Albuquerque Center
Sun 08:32:31 PM 33.4117 -109.5753 264° West 400 460 36,000  Level Albuquerque Center
Sun 08:33:33 PM 33.4006 -109.7050 264° West 399 459 36,000  Level Albuquerque Center
Sun 08:34:35 PM 33.3889 -109.8356 264° West 399 459 36,000  Level Albuquerque Center
Sun 08:35:37 PM 33.3769 -109.9653 264° West 398 458 36,000  Level Albuquerque Center
Sun 08:36:40 PM 33.3642 -110.1211 264° West 398 458 36,000  Level Albuquerque Center
Sun 08:37:42 PM 33.3522 -110.2492 264° West 395 455 36,000  Level Albuquerque Center
Sun 08:38:44 PM 33.3406 -110.3772 264° West 393 452 36,000  Level Albuquerque Center
Sun 08:39:46 PM 33.3292 -110.5053 263° West 392 451 36,000  Level Albuquerque Center
Sun 08:40:48 PM 33.3164 -110.6336 263° West 392 451 36,000  Level Albuquerque Center
Sun 08:41:50 PM 33.3031 -110.7703 263° West 395 455 36,000  Level Albuquerque Center
Sun 08:42:52 PM 33.2900 -110.9033 263° West 397 457 36,000  Level Albuquerque Center
Sun 08:43:54 PM 33.2769 -111.0372 263° West 398 458 36,000  Level Albuquerque Center
Sun 08:44:56 PM 33.2600 -111.1994 263° West 402 463 36,000  Level Albuquerque Center
Sun 08:45:59 PM 33.2458 -111.3392 263° West 403 464 36,000  Level Albuquerque Center
Sun 08:47:01 PM 33.2319 -111.4714 263° West 405 466 36,000  Level Albuquerque Center
Sun 08:48:03 PM 33.2181 -111.6083 263° West 407 468 36,000  Level Albuquerque Center
Sun 08:49:05 PM 33.2031 -111.7467 263° West 410 472 36,000  Level Albuquerque Center
Sun 08:50:07 PM 33.1886 -111.8836 263° West 410 472 36,000  Level Albuquerque Center
Sun 08:51:09 PM 33.1744 -112.0206 263° West 409 471 36,000  Level Albuquerque Center
Sun 08:52:11 PM 33.1592 -112.1589 262° West 411 473 36,000  Level Albuquerque Center
Sun 08:53:13 PM 33.1439 -112.2942 262° West 408 470 36,000  Level Albuquerque Center
Sun 08:54:15 PM 33.1269 -112.4394 263° West 405 466 36,000  Level Albuquerque Center
Sun 08:55:17 PM 33.1125 -112.5717 263° West 405 466 36,000 -48 Level Albuquerque Center
Sun 08:56:19 PM 33.0989 -112.7039 262° West 405 466 35,900 -48 Descending Albuquerque Center
Sun 08:57:21 PM 33.0833 -112.8353 262° West 404 465 35,900  Level Albuquerque Center
Sun 08:58:23 PM 33.0656 -112.9936 262° West 404 465 35,900 -484 Level Albuquerque Center
Sun 09:01:29 PM 33.0189 -113.3856 264° West 402 463 33,900 -227 Descending Albuquerque Center
Sun 09:06:45 PM 32.9603 -114.0717 264° West 409 471 34,000 -81 Climbing Los Center
Sun 09:07:41 PM 32.9497 -114.1981 265° West 401 461 33,400 -763 Descending Albuquerque Center
Sun 09:08:43 PM 32.9397 -114.3258 264° West 395 455 32,500 -1,258 Descending Albuquerque Center
Sun 09:09:45 PM 32.9247 -114.4831 265° West 404 465 30,800 -1,328 Descending Los Center
Sun 09:10:45 PM 32.9158 -114.6094 263° West 398 458 29,800 -900 Descending Los Center
Sun 09:11:45 PM 32.9047 -114.7186 265° West 391 450 29,000 -900 Descending Los Center
Sun 09:12:45 PM 32.8956 -114.8425 264° West 385 443 28,000 -1,000 Descending Los Center
Sun 09:13:45 PM 32.8842 -114.9661 265° West 385 443 27,000 -950 Descending Los Center
Sun 09:14:45 PM 32.8750 -115.0900 264° West 385 443 26,100 -950 Descending Los Center
Sun 09:15:45 PM 32.8633 -115.2136 265° West 385 443 25,100 -1,000 Descending Los Center
Sun 09:16:45 PM 32.8539 -115.3350 264° West 385 443 24,100 -1,000 Descending Los Center
Sun 09:17:45 PM 32.8442 -115.4536 263° West 380 437 23,100 -1,000 Descending Los Center
Sun 09:18:45 PM 32.8322 -115.5700 264° West 368 423 22,100 -1,000 Descending Los Center
Sun 09:19:45 PM 32.8222 -115.6911 263° West 368 423 21,100 -900 Descending Los Center
Sun 09:20:45 PM 32.8100 -115.8072 264° West 368 423 20,300 -900 Descending Los Center
Sun 09:21:45 PM 32.7997 -115.9236 264° West 368 423 19,300 -1,300 Descending Los Center
Sun 09:22:45 PM 32.7894 -116.0372 264° West 363 418 17,700 -1,650 Descending Los Center
Sun 09:23:45 PM 32.7792 -116.1483 263° West 358 412 16,000 -1,900 Descending Los Center
Sun 09:24:45 PM 32.7686 -116.2544 261° West 346 398 13,900 -2,350 Descending Los Center
Sun 09:25:45 PM 32.7539 -116.3681 260° West 341 392 11,300 -1,850 Descending Los Center
Sun 09:26:45 PM 32.7411 -116.4544 260° West 341 392 10,200 -1,100 Descending Los Center
Sun 09:27:45 PM 32.7239 -116.5756 261° West 330 380 9,100 -1,350 Descending Los Center
Sun 09:28:45 PM 32.7111 -116.6717 260° West 311 358 7,500 -1,400 Descending Los Center
Sun 09:29:45 PM 32.6981 -116.7628 259° West 300 345 6,300 -1,200 Descending Los Center
Sun 09:30:45 PM 32.6831 -116.8542 270° West 289 333 5,100 -1,163 Descending Los Center
Sun 09:31:23 PM 32.6833 -116.9167 270° West 256 295 4,400 -1,105 Descending Southern TRACON

Login

Don't have an account? Register now (free) for customized features, flight alerts, and more!